sensor_id;sensor_type;location;lat;lon;timestamp;P1;durP1;ratioP1;P2;durP2;ratioP2
76433;SDS011;65265;53.200;6.080;2023-04-05T00:03:43;3.72;;;2.83;;
76433;SDS011;65265;53.200;6.080;2023-04-05T00:08:36;4.53;;;2.55;;
76433;SDS011;65265;53.200;6.080;2023-04-05T00:13:33;4.65;;;2.65;;
76433;SDS011;65265;53.200;6.080;2023-04-05T00:18:26;4.60;;;2.42;;
76433;SDS011;65265;53.200;6.080;2023-04-05T00:23:23;4.97;;;1.98;;
76433;SDS011;65265;53.200;6.080;2023-04-05T00:28:18;9.48;;;5.68;;
76433;SDS011;65265;53.200;6.080;2023-04-05T00:33:16;6.00;;;2.58;;
76433;SDS011;65265;53.200;6.080;2023-04-05T00:38:09;4.18;;;2.22;;
76433;SDS011;65265;53.200;6.080;2023-04-05T00:43:02;7.35;;;3.28;;
76433;SDS011;65265;53.200;6.080;2023-04-05T00:47:55;5.72;;;3.40;;
76433;SDS011;65265;53.200;6.080;2023-04-05T00:52:51;6.03;;;2.63;;
76433;SDS011;65265;53.200;6.080;2023-04-05T00:57:44;8.52;;;3.17;;
76433;SDS011;65265;53.200;6.080;2023-04-05T01:02:40;5.35;;;3.15;;
76433;SDS011;65265;53.200;6.080;2023-04-05T01:07:39;4.88;;;2.90;;
76433;SDS011;65265;53.200;6.080;2023-04-05T01:12:37;6.72;;;3.03;;
76433;SDS011;65265;53.200;6.080;2023-04-05T01:17:32;6.20;;;2.58;;
76433;SDS011;65265;53.200;6.080;2023-04-05T01:28:26;5.57;;;2.25;;
76433;SDS011;65265;53.200;6.080;2023-04-05T01:33:36;5.05;;;2.90;;
76433;SDS011;65265;53.200;6.080;2023-04-05T01:38:37;4.97;;;2.40;;
76433;SDS011;65265;53.200;6.080;2023-04-05T01:43:31;3.90;;;2.15;;
76433;SDS011;65265;53.200;6.080;2023-04-05T01:48:26;3.63;;;2.42;;
76433;SDS011;65265;53.200;6.080;2023-04-05T01:53:22;5.50;;;3.35;;
76433;SDS011;65265;53.200;6.080;2023-04-05T01:58:15;6.65;;;3.05;;
76433;SDS011;65265;53.200;6.080;2023-04-05T02:03:10;6.85;;;2.58;;
76433;SDS011;65265;53.200;6.080;2023-04-05T02:08:03;3.88;;;2.47;;
76433;SDS011;65265;53.200;6.080;2023-04-05T02:13:00;6.28;;;3.42;;
76433;SDS011;65265;53.200;6.080;2023-04-05T02:17:54;5.72;;;3.10;;
76433;SDS011;65265;53.200;6.080;2023-04-05T02:22:51;6.90;;;2.47;;
76433;SDS011;65265;53.200;6.080;2023-04-05T02:27:45;7.50;;;2.88;;
76433;SDS011;65265;53.200;6.080;2023-04-05T02:32:40;4.60;;;2.80;;
76433;SDS011;65265;53.200;6.080;2023-04-05T02:37:34;6.78;;;3.53;;
76433;SDS011;65265;53.200;6.080;2023-04-05T02:42:27;5.20;;;2.65;;
76433;SDS011;65265;53.200;6.080;2023-04-05T02:47:20;6.45;;;2.80;;
76433;SDS011;65265;53.200;6.080;2023-04-05T02:52:16;4.38;;;3.00;;
76433;SDS011;65265;53.200;6.080;2023-04-05T02:57:09;8.05;;;3.20;;
76433;SDS011;65265;53.200;6.080;2023-04-05T03:02:01;4.25;;;3.50;;
76433;SDS011;65265;53.200;6.080;2023-04-05T03:06:56;5.38;;;3.10;;
76433;SDS011;65265;53.200;6.080;2023-04-05T03:11:52;6.40;;;3.15;;
76433;SDS011;65265;53.200;6.080;2023-04-05T03:16:46;5.38;;;3.08;;
76433;SDS011;65265;53.200;6.080;2023-04-05T03:21:39;4.78;;;2.47;;
76433;SDS011;65265;53.200;6.080;2023-04-05T03:26:34;6.93;;;4.47;;
76433;SDS011;65265;53.200;6.080;2023-04-05T03:31:31;5.93;;;2.97;;
76433;SDS011;65265;53.200;6.080;2023-04-05T03:36:23;7.90;;;3.20;;
76433;SDS011;65265;53.200;6.080;2023-04-05T03:41:18;6.15;;;2.28;;
76433;SDS011;65265;53.200;6.080;2023-04-05T03:46:12;4.95;;;2.72;;
76433;SDS011;65265;53.200;6.080;2023-04-05T03:51:11;5.03;;;4.25;;
76433;SDS011;65265;53.200;6.080;2023-04-05T03:56:04;5.97;;;2.17;;
76433;SDS011;65265;53.200;6.080;2023-04-05T04:00:58;6.70;;;2.85;;
76433;SDS011;65265;53.200;6.080;2023-04-05T04:05:52;5.20;;;3.03;;
76433;SDS011;65265;53.200;6.080;2023-04-05T04:10:48;6.05;;;4.13;;
76433;SDS011;65265;53.200;6.080;2023-04-05T04:15:41;5.03;;;3.33;;
76433;SDS011;65265;53.200;6.080;2023-04-05T04:20:36;5.63;;;3.40;;
76433;SDS011;65265;53.200;6.080;2023-04-05T04:25:29;7.18;;;3.20;;
76433;SDS011;65265;53.200;6.080;2023-04-05T04:30:24;6.82;;;3.25;;
76433;SDS011;65265;53.200;6.080;2023-04-05T04:35:19;6.03;;;2.58;;
76433;SDS011;65265;53.200;6.080;2023-04-05T04:40:14;5.15;;;2.92;;
76433;SDS011;65265;53.200;6.080;2023-04-05T04:45:08;7.35;;;2.65;;
76433;SDS011;65265;53.200;6.080;2023-04-05T04:50:05;5.05;;;2.53;;
76433;SDS011;65265;53.200;6.080;2023-04-05T04:55:01;9.13;;;4.30;;
76433;SDS011;65265;53.200;6.080;2023-04-05T04:59:55;7.18;;;4.00;;
76433;SDS011;65265;53.200;6.080;2023-04-05T05:04:48;7.25;;;3.88;;
76433;SDS011;65265;53.200;6.080;2023-04-05T05:09:43;10.52;;;5.68;;
76433;SDS011;65265;53.200;6.080;2023-04-05T05:14:38;9.07;;;4.68;;
76433;SDS011;65265;53.200;6.080;2023-04-05T05:19:32;6.60;;;3.55;;
76433;SDS011;65265;53.200;6.080;2023-04-05T05:24:25;7.70;;;4.32;;
76433;SDS011;65265;53.200;6.080;2023-04-05T05:29:21;10.15;;;5.82;;
76433;SDS011;65265;53.200;6.080;2023-04-05T05:34:16;8.98;;;5.78;;
76433;SDS011;65265;53.200;6.080;2023-04-05T05:39:09;14.85;;;7.82;;
76433;SDS011;65265;53.200;6.080;2023-04-05T05:44:01;13.60;;;7.70;;
76433;SDS011;65265;53.200;6.080;2023-04-05T05:48:56;10.48;;;6.90;;
76433;SDS011;65265;53.200;6.080;2023-04-05T05:53:50;9.95;;;5.40;;
76433;SDS011;65265;53.200;6.080;2023-04-05T05:58:43;10.95;;;6.45;;
76433;SDS011;65265;53.200;6.080;2023-04-05T06:03:38;11.30;;;6.07;;
76433;SDS011;65265;53.200;6.080;2023-04-05T06:08:33;11.32;;;8.93;;
76433;SDS011;65265;53.200;6.080;2023-04-05T06:13:25;14.65;;;8.00;;
76433;SDS011;65265;53.200;6.080;2023-04-05T06:18:18;12.02;;;7.10;;
76433;SDS011;65265;53.200;6.080;2023-04-05T06:23:16;13.43;;;6.97;;
76433;SDS011;65265;53.200;6.080;2023-04-05T06:28:13;14.23;;;6.47;;
76433;SDS011;65265;53.200;6.080;2023-04-05T06:33:07;12.15;;;5.70;;
76433;SDS011;65265;53.200;6.080;2023-04-05T06:38:04;11.05;;;6.43;;
76433;SDS011;65265;53.200;6.080;2023-04-05T06:43:00;13.07;;;7.70;;
76433;SDS011;65265;53.200;6.080;2023-04-05T06:48:00;16.77;;;7.45;;
76433;SDS011;65265;53.200;6.080;2023-04-05T06:52:55;14.98;;;7.35;;
76433;SDS011;65265;53.200;6.080;2023-04-05T07:02:44;12.98;;;8.20;;
76433;SDS011;65265;53.200;6.080;2023-04-05T07:07:42;11.00;;;7.43;;
76433;SDS011;65265;53.200;6.080;2023-04-05T07:12:38;12.32;;;6.50;;
76433;SDS011;65265;53.200;6.080;2023-04-05T07:22:23;12.18;;;6.88;;
76433;SDS011;65265;53.200;6.080;2023-04-05T07:27:18;17.83;;;7.15;;
76433;SDS011;65265;53.200;6.080;2023-04-05T07:32:15;12.65;;;6.78;;
76433;SDS011;65265;53.200;6.080;2023-04-05T07:37:08;15.73;;;7.13;;
76433;SDS011;65265;53.200;6.080;2023-04-05T07:42:05;16.20;;;7.20;;
76433;SDS011;65265;53.200;6.080;2023-04-05T07:47:05;12.55;;;7.35;;
76433;SDS011;65265;53.200;6.080;2023-04-05T07:51:59;14.60;;;7.40;;
76433;SDS011;65265;53.200;6.080;2023-04-05T07:56:55;18.58;;;6.68;;
76433;SDS011;65265;53.200;6.080;2023-04-05T08:01:50;11.40;;;7.32;;
76433;SDS011;65265;53.200;6.080;2023-04-05T08:06:50;11.63;;;7.55;;
76433;SDS011;65265;53.200;6.080;2023-04-05T08:11:46;12.10;;;6.68;;
76433;SDS011;65265;53.200;6.080;2023-04-05T08:16:39;12.70;;;6.45;;
76433;SDS011;65265;53.200;6.080;2023-04-05T08:21:34;9.15;;;5.85;;
76433;SDS011;65265;53.200;6.080;2023-04-05T08:26:31;8.73;;;5.65;;
76433;SDS011;65265;53.200;6.080;2023-04-05T08:31:25;10.57;;;5.55;;
76433;SDS011;65265;53.200;6.080;2023-04-05T08:36:21;9.35;;;5.38;;
76433;SDS011;65265;53.200;6.080;2023-04-05T08:41:16;11.02;;;5.32;;
76433;SDS011;65265;53.200;6.080;2023-04-05T08:46:13;8.23;;;4.47;;
76433;SDS011;65265;53.200;6.080;2023-04-05T08:51:08;11.13;;;8.20;;
76433;SDS011;65265;53.200;6.080;2023-04-05T08:56:03;7.68;;;5.07;;
76433;SDS011;65265;53.200;6.080;2023-04-05T09:00:56;9.73;;;4.13;;
76433;SDS011;65265;53.200;6.080;2023-04-05T09:05:52;9.50;;;5.22;;
76433;SDS011;65265;53.200;6.080;2023-04-05T09:10:45;9.52;;;4.28;;
76433;SDS011;65265;53.200;6.080;2023-04-05T09:15:39;8.43;;;4.75;;
76433;SDS011;65265;53.200;6.080;2023-04-05T09:20:32;7.60;;;4.10;;
76433;SDS011;65265;53.200;6.080;2023-04-05T09:25:35;8.30;;;5.10;;
76433;SDS011;65265;53.200;6.080;2023-04-05T09:30:32;9.05;;;4.80;;
76433;SDS011;65265;53.200;6.080;2023-04-05T09:35:28;5.97;;;3.65;;
76433;SDS011;65265;53.200;6.080;2023-04-05T09:45:41;7.53;;;3.28;;
76433;SDS011;65265;53.200;6.080;2023-04-05T09:50:35;7.20;;;3.60;;
76433;SDS011;65265;53.200;6.080;2023-04-05T09:55:30;5.75;;;3.72;;
76433;SDS011;65265;53.200;6.080;2023-04-05T10:00:29;5.78;;;3.97;;
76433;SDS011;65265;53.200;6.080;2023-04-05T10:05:23;6.18;;;3.47;;
76433;SDS011;65265;53.200;6.080;2023-04-05T10:10:17;8.13;;;3.90;;
76433;SDS011;65265;53.200;6.080;2023-04-05T10:15:11;5.43;;;3.63;;
76433;SDS011;65265;53.200;6.080;2023-04-05T10:20:08;5.93;;;2.90;;
76433;SDS011;65265;53.200;6.080;2023-04-05T10:25:08;6.45;;;3.15;;
76433;SDS011;65265;53.200;6.080;2023-04-05T10:30:07;6.75;;;3.40;;
76433;SDS011;65265;53.200;6.080;2023-04-05T10:35:03;4.30;;;2.47;;
76433;SDS011;65265;53.200;6.080;2023-04-05T10:40:08;4.45;;;2.65;;
76433;SDS011;65265;53.200;6.080;2023-04-05T10:45:04;6.43;;;3.30;;
76433;SDS011;65265;53.200;6.080;2023-04-05T10:50:02;9.77;;;3.55;;
76433;SDS011;65265;53.200;6.080;2023-04-05T10:55:01;7.18;;;4.47;;
76433;SDS011;65265;53.200;6.080;2023-04-05T10:59:54;5.28;;;3.00;;
76433;SDS011;65265;53.200;6.080;2023-04-05T11:04:52;7.72;;;2.88;;
76433;SDS011;65265;53.200;6.080;2023-04-05T11:09:50;5.78;;;3.17;;
76433;SDS011;65265;53.200;6.080;2023-04-05T11:14:46;5.63;;;3.13;;
76433;SDS011;65265;53.200;6.080;2023-04-05T11:19:48;5.60;;;3.40;;
76433;SDS011;65265;53.200;6.080;2023-04-05T11:24:48;6.28;;;3.00;;
76433;SDS011;65265;53.200;6.080;2023-04-05T11:29:48;5.53;;;2.38;;
76433;SDS011;65265;53.200;6.080;2023-04-05T11:34:46;5.63;;;3.20;;
76433;SDS011;65265;53.200;6.080;2023-04-05T11:39:56;3.30;;;2.70;;
76433;SDS011;65265;53.200;6.080;2023-04-05T11:50:16;6.10;;;3.53;;
76433;SDS011;65265;53.200;6.080;2023-04-05T11:55:10;4.10;;;2.38;;
76433;SDS011;65265;53.200;6.080;2023-04-05T12:00:05;5.65;;;3.25;;
76433;SDS011;65265;53.200;6.080;2023-04-05T12:05:07;5.25;;;3.15;;
76433;SDS011;65265;53.200;6.080;2023-04-05T12:10:01;5.55;;;2.70;;
76433;SDS011;65265;53.200;6.080;2023-04-05T12:14:58;4.45;;;2.45;;
76433;SDS011;65265;53.200;6.080;2023-04-05T12:19:53;5.85;;;2.83;;
76433;SDS011;65265;53.200;6.080;2023-04-05T12:24:52;4.40;;;2.97;;
76433;SDS011;65265;53.200;6.080;2023-04-05T12:35:05;4.90;;;2.60;;
76433;SDS011;65265;53.200;6.080;2023-04-05T12:40:08;4.55;;;2.55;;
76433;SDS011;65265;53.200;6.080;2023-04-05T12:45:07;7.40;;;2.72;;
76433;SDS011;65265;53.200;6.080;2023-04-05T12:50:11;5.50;;;3.35;;
76433;SDS011;65265;53.200;6.080;2023-04-05T12:55:21;7.97;;;3.10;;
76433;SDS011;65265;53.200;6.080;2023-04-05T13:00:27;6.18;;;3.22;;
76433;SDS011;65265;53.200;6.080;2023-04-05T13:05:22;6.32;;;2.72;;
76433;SDS011;65265;53.200;6.080;2023-04-05T13:10:20;5.88;;;3.33;;
76433;SDS011;65265;53.200;6.080;2023-04-05T13:15:16;5.13;;;2.63;;
76433;SDS011;65265;53.200;6.080;2023-04-05T13:20:14;6.72;;;3.50;;
76433;SDS011;65265;53.200;6.080;2023-04-05T13:25:09;5.38;;;3.10;;
76433;SDS011;65265;53.200;6.080;2023-04-05T13:30:06;5.75;;;3.22;;
76433;SDS011;65265;53.200;6.080;2023-04-05T13:35:00;6.30;;;3.05;;
76433;SDS011;65265;53.200;6.080;2023-04-05T13:39:55;5.95;;;2.80;;
76433;SDS011;65265;53.200;6.080;2023-04-05T13:44:49;6.68;;;2.92;;
76433;SDS011;65265;53.200;6.080;2023-04-05T13:49:47;5.03;;;2.78;;
76433;SDS011;65265;53.200;6.080;2023-04-05T13:54:41;5.32;;;3.03;;
76433;SDS011;65265;53.200;6.080;2023-04-05T13:59:38;4.65;;;2.53;;
76433;SDS011;65265;53.200;6.080;2023-04-05T14:04:30;5.22;;;3.03;;
76433;SDS011;65265;53.200;6.080;2023-04-05T14:09:26;6.43;;;2.95;;
76433;SDS011;65265;53.200;6.080;2023-04-05T14:14:19;4.97;;;3.50;;
76433;SDS011;65265;53.200;6.080;2023-04-05T14:19:12;6.43;;;3.10;;
76433;SDS011;65265;53.200;6.080;2023-04-05T14:24:06;4.18;;;2.42;;
76433;SDS011;65265;53.200;6.080;2023-04-05T14:29:01;5.80;;;3.13;;
76433;SDS011;65265;53.200;6.080;2023-04-05T14:33:54;6.75;;;2.92;;
76433;SDS011;65265;53.200;6.080;2023-04-05T14:38:49;6.28;;;2.92;;
76433;SDS011;65265;53.200;6.080;2023-04-05T14:43:41;4.82;;;3.03;;
76433;SDS011;65265;53.200;6.080;2023-04-05T14:48:40;5.45;;;2.88;;
76433;SDS011;65265;53.200;6.080;2023-04-05T14:53:33;5.60;;;2.95;;
76433;SDS011;65265;53.200;6.080;2023-04-05T14:58:27;4.28;;;2.58;;
76433;SDS011;65265;53.200;6.080;2023-04-05T15:03:23;4.32;;;2.92;;
76433;SDS011;65265;53.200;6.080;2023-04-05T15:08:19;5.60;;;3.40;;
76433;SDS011;65265;53.200;6.080;2023-04-05T15:13:13;5.53;;;4.60;;
76433;SDS011;65265;53.200;6.080;2023-04-05T15:23:07;14.48;;;7.30;;
76433;SDS011;65265;53.200;6.080;2023-04-05T15:28:05;9.65;;;4.95;;
76433;SDS011;65265;53.200;6.080;2023-04-05T15:33:00;8.70;;;4.20;;
76433;SDS011;65265;53.200;6.080;2023-04-05T15:37:55;4.95;;;2.50;;
76433;SDS011;65265;53.200;6.080;2023-04-05T15:42:50;6.53;;;2.58;;
76433;SDS011;65265;53.200;6.080;2023-04-05T15:47:51;4.10;;;2.30;;
76433;SDS011;65265;53.200;6.080;2023-04-05T15:52:46;4.68;;;2.47;;
76433;SDS011;65265;53.200;6.080;2023-04-05T15:57:39;5.40;;;3.10;;
76433;SDS011;65265;53.200;6.080;2023-04-05T16:02:39;5.32;;;2.90;;
76433;SDS011;65265;53.200;6.080;2023-04-05T16:07:36;4.10;;;2.53;;
76433;SDS011;65265;53.200;6.080;2023-04-05T16:12:36;5.50;;;3.85;;
76433;SDS011;65265;53.200;6.080;2023-04-05T16:17:30;6.70;;;2.65;;
76433;SDS011;65265;53.200;6.080;2023-04-05T16:22:24;5.82;;;3.20;;
76433;SDS011;65265;53.200;6.080;2023-04-05T16:27:24;2.97;;;1.65;;
76433;SDS011;65265;53.200;6.080;2023-04-05T16:32:22;6.35;;;2.78;;
76433;SDS011;65265;53.200;6.080;2023-04-05T16:37:16;6.05;;;3.08;;
76433;SDS011;65265;53.200;6.080;2023-04-05T16:42:10;6.68;;;2.58;;
76433;SDS011;65265;53.200;6.080;2023-04-05T16:47:12;3.90;;;2.58;;
76433;SDS011;65265;53.200;6.080;2023-04-05T16:52:06;5.20;;;2.58;;
76433;SDS011;65265;53.200;6.080;2023-04-05T16:57:02;5.03;;;2.45;;
76433;SDS011;65265;53.200;6.080;2023-04-05T17:01:57;5.25;;;3.22;;
76433;SDS011;65265;53.200;6.080;2023-04-05T17:06:52;5.38;;;2.50;;
76433;SDS011;65265;53.200;6.080;2023-04-05T17:11:45;5.00;;;3.13;;
76433;SDS011;65265;53.200;6.080;2023-04-05T17:16:38;6.13;;;3.55;;
76433;SDS011;65265;53.200;6.080;2023-04-05T17:21:31;5.35;;;2.78;;
76433;SDS011;65265;53.200;6.080;2023-04-05T17:26:29;5.38;;;3.22;;
76433;SDS011;65265;53.200;6.080;2023-04-05T17:31:23;3.80;;;2.50;;
76433;SDS011;65265;53.200;6.080;2023-04-05T17:36:19;4.15;;;2.47;;
76433;SDS011;65265;53.200;6.080;2023-04-05T17:41:12;4.15;;;2.70;;
76433;SDS011;65265;53.200;6.080;2023-04-05T17:46:07;4.88;;;3.08;;
76433;SDS011;65265;53.200;6.080;2023-04-05T17:51:03;4.28;;;2.25;;
76433;SDS011;65265;53.200;6.080;2023-04-05T17:55:58;3.92;;;2.35;;
76433;SDS011;65265;53.200;6.080;2023-04-05T18:00:53;4.55;;;1.95;;
76433;SDS011;65265;53.200;6.080;2023-04-05T18:05:50;5.65;;;5.20;;
76433;SDS011;65265;53.200;6.080;2023-04-05T18:10:46;4.85;;;2.38;;
76433;SDS011;65265;53.200;6.080;2023-04-05T18:15:39;3.95;;;1.98;;
76433;SDS011;65265;53.200;6.080;2023-04-05T18:20:32;4.32;;;2.75;;
76433;SDS011;65265;53.200;6.080;2023-04-05T18:25:31;4.47;;;2.60;;
76433;SDS011;65265;53.200;6.080;2023-04-05T18:30:24;4.18;;;2.67;;
76433;SDS011;65265;53.200;6.080;2023-04-05T18:35:18;3.65;;;1.90;;
76433;SDS011;65265;53.200;6.080;2023-04-05T18:40:14;5.95;;;2.97;;
76433;SDS011;65265;53.200;6.080;2023-04-05T18:45:15;8.73;;;3.17;;
76433;SDS011;65265;53.200;6.080;2023-04-05T18:50:18;6.85;;;2.83;;
76433;SDS011;65265;53.200;6.080;2023-04-05T18:55:23;6.38;;;3.20;;
76433;SDS011;65265;53.200;6.080;2023-04-05T19:00:22;5.07;;;2.40;;
76433;SDS011;65265;53.200;6.080;2023-04-05T19:05:14;4.32;;;2.60;;
76433;SDS011;65265;53.200;6.080;2023-04-05T19:10:09;5.72;;;3.08;;
76433;SDS011;65265;53.200;6.080;2023-04-05T19:15:02;7.03;;;3.50;;
76433;SDS011;65265;53.200;6.080;2023-04-05T19:19:59;6.07;;;3.72;;
76433;SDS011;65265;53.200;6.080;2023-04-05T19:24:52;7.50;;;5.55;;
76433;SDS011;65265;53.200;6.080;2023-04-05T19:29:45;7.45;;;3.22;;
76433;SDS011;65265;53.200;6.080;2023-04-05T19:34:38;7.43;;;3.67;;
76433;SDS011;65265;53.200;6.080;2023-04-05T19:39:34;10.15;;;3.85;;
76433;SDS011;65265;53.200;6.080;2023-04-05T19:44:37;4.82;;;2.63;;
76433;SDS011;65265;53.200;6.080;2023-04-05T19:49:41;5.57;;;3.15;;
76433;SDS011;65265;53.200;6.080;2023-04-05T19:54:37;5.05;;;3.65;;
76433;SDS011;65265;53.200;6.080;2023-04-05T19:59:33;8.23;;;4.20;;
76433;SDS011;65265;53.200;6.080;2023-04-05T20:04:27;4.65;;;3.15;;
76433;SDS011;65265;53.200;6.080;2023-04-05T20:09:24;7.07;;;3.40;;
76433;SDS011;65265;53.200;6.080;2023-04-05T20:14:23;6.03;;;3.58;;
76433;SDS011;65265;53.200;6.080;2023-04-05T20:19:25;9.50;;;4.28;;
76433;SDS011;65265;53.200;6.080;2023-04-05T20:24:22;5.15;;;2.75;;
76433;SDS011;65265;53.200;6.080;2023-04-05T20:29:15;9.57;;;4.60;;
76433;SDS011;65265;53.200;6.080;2023-04-05T20:34:18;6.45;;;3.38;;
76433;SDS011;65265;53.200;6.080;2023-04-05T20:39:16;7.25;;;3.80;;
76433;SDS011;65265;53.200;6.080;2023-04-05T20:44:09;6.38;;;3.10;;
76433;SDS011;65265;53.200;6.080;2023-04-05T20:49:04;5.75;;;3.63;;
76433;SDS011;65265;53.200;6.080;2023-04-05T20:53:57;6.22;;;4.93;;
76433;SDS011;65265;53.200;6.080;2023-04-05T20:58:49;6.82;;;3.50;;
76433;SDS011;65265;53.200;6.080;2023-04-05T21:03:43;5.63;;;3.55;;
76433;SDS011;65265;53.200;6.080;2023-04-05T21:08:38;6.57;;;4.00;;
76433;SDS011;65265;53.200;6.080;2023-04-05T21:13:31;6.30;;;4.10;;
76433;SDS011;65265;53.200;6.080;2023-04-05T21:18:26;5.47;;;3.10;;
76433;SDS011;65265;53.200;6.080;2023-04-05T21:23:19;6.45;;;3.67;;
76433;SDS011;65265;53.200;6.080;2023-04-05T21:28:14;11.30;;;4.88;;
76433;SDS011;65265;53.200;6.080;2023-04-05T21:33:07;7.28;;;4.95;;
76433;SDS011;65265;53.200;6.080;2023-04-05T21:38:00;5.43;;;2.92;;
76433;SDS011;65265;53.200;6.080;2023-04-05T21:42:52;5.32;;;2.90;;
76433;SDS011;65265;53.200;6.080;2023-04-05T21:47:48;6.70;;;3.47;;
76433;SDS011;65265;53.200;6.080;2023-04-05T21:52:41;4.97;;;3.15;;
76433;SDS011;65265;53.200;6.080;2023-04-05T21:57:34;7.80;;;5.97;;
76433;SDS011;65265;53.200;6.080;2023-04-05T22:02:26;9.27;;;3.83;;
76433;SDS011;65265;53.200;6.080;2023-04-05T22:07:22;6.65;;;2.97;;
76433;SDS011;65265;53.200;6.080;2023-04-05T22:12:14;8.25;;;3.70;;
76433;SDS011;65265;53.200;6.080;2023-04-05T22:17:06;7.63;;;5.30;;
76433;SDS011;65265;53.200;6.080;2023-04-05T22:26:53;8.75;;;4.45;;
76433;SDS011;65265;53.200;6.080;2023-04-05T22:31:47;6.88;;;4.15;;
76433;SDS011;65265;53.200;6.080;2023-04-05T22:41:34;10.43;;;4.30;;
76433;SDS011;65265;53.200;6.080;2023-04-05T22:46:29;9.13;;;4.88;;
76433;SDS011;65265;53.200;6.080;2023-04-05T22:51:23;6.90;;;4.50;;
76433;SDS011;65265;53.200;6.080;2023-04-05T22:56:16;9.32;;;5.28;;
76433;SDS011;65265;53.200;6.080;2023-04-05T23:01:12;9.05;;;4.85;;
76433;SDS011;65265;53.200;6.080;2023-04-05T23:06:08;9.35;;;4.13;;
76433;SDS011;65265;53.200;6.080;2023-04-05T23:11:02;9.05;;;5.85;;
76433;SDS011;65265;53.200;6.080;2023-04-05T23:15:55;9.93;;;4.60;;
76433;SDS011;65265;53.200;6.080;2023-04-05T23:20:48;8.50;;;5.00;;
76433;SDS011;65265;53.200;6.080;2023-04-05T23:25:43;9.50;;;5.22;;
76433;SDS011;65265;53.200;6.080;2023-04-05T23:30:37;6.85;;;4.28;;
76433;SDS011;65265;53.200;6.080;2023-04-05T23:35:30;7.43;;;4.10;;
76433;SDS011;65265;53.200;6.080;2023-04-05T23:40:25;6.70;;;4.07;;
76433;SDS011;65265;53.200;6.080;2023-04-05T23:45:21;9.20;;;4.28;;
76433;SDS011;65265;53.200;6.080;2023-04-05T23:50:14;12.00;;;5.93;;
76433;SDS011;65265;53.200;6.080;2023-04-05T23:55:07;10.27;;;4.45;;
